Time;durP1;ratioP1;P1;durP2;ratioP2;P2;SDS_P1;SDS_P2;PMS_P1;PMS_P2;Temp;Humidity;BMP_temperature;BMP_pressure;BME280_temperature;BME280_humidity;BME280_pressure;Samples;Min_cycle;Max_cycle;Signal;HPM_P1;HPM_P2
2022/08/03 00:01:00;;;;;;;4.55;0.90;;;;;;;18.27;82.71;100232.06;5058501;28;20017;-74
2022/08/03 00:03:26;;;;;;;6.82;1.20;;;;;;;18.26;81.92;100227.66;5060692;28;20040;-73
2022/08/03 00:05:51;;;;;;;8.80;2.03;;;;;;;18.29;82.08;100229.78;5069345;28;20020;-74
2022/08/03 00:08:17;;;;;;;12.40;1.60;;;;;;;18.35;81.80;100232.41;5075746;28;20374;-74
2022/08/03 00:10:43;;;;;;;6.18;1.15;;;;;;;18.36;81.86;100234.03;5075644;28;20384;-73
2022/08/03 00:13:09;;;;;;;9.32;1.75;;;;;;;18.36;81.53;100228.50;5032623;28;20032;-73
2022/08/03 00:15:35;;;;;;;6.18;1.33;;;;;;;18.34;81.46;100225.22;5057720;28;20032;-73
2022/08/03 00:18:00;;;;;;;5.03;1.20;;;;;;;18.30;81.75;100225.88;5065097;28;20035;-72
2022/08/03 00:20:26;;;;;;;4.93;1.77;;;;;;;18.33;81.73;100218.88;5046486;28;20028;-73
2022/08/03 00:22:51;;;;;;;3.30;1.52;;;;;;;18.37;81.25;100230.13;5054052;28;20024;-71
2022/08/03 00:25:17;;;;;;;3.40;1.08;;;;;;;18.36;81.21;100229.31;5031414;28;20043;-73
2022/08/03 00:27:42;;;;;;;4.60;1.38;;;;;;;18.36;81.14;100223.78;5070741;28;20052;-73
2022/08/03 00:30:08;;;;;;;11.30;1.48;;;;;;;18.32;81.54;100228.31;5074867;28;20113;-72
2022/08/03 00:32:33;;;;;;;7.32;1.30;;;;;;;18.35;81.73;100224.09;5039644;28;20108;-75
2022/08/03 00:34:59;;;;;;;5.05;1.30;;;;;;;18.35;81.99;100216.59;5057221;28;20140;-74
2022/08/03 00:37:24;;;;;;;11.15;1.73;;;;;;;18.38;81.53;100215.94;5054951;28;20024;-72
2022/08/03 00:39:50;;;;;;;5.90;1.33;;;;;;;18.35;81.34;100215.78;5065011;28;20281;-73
2022/08/03 00:42:15;;;;;;;6.28;1.25;;;;;;;18.35;81.43;100207.50;5024805;28;20027;-74
2022/08/03 00:44:42;;;;;;;4.53;1.52;;;;;;;18.39;81.10;100217.59;5065221;28;20309;-74
2022/08/03 00:47:11;;;;;;;5.68;1.30;;;;;;;18.41;81.39;100214.50;5055400;28;20059;-73
2022/08/03 00:49:38;;;;;;;21.30;1.70;;;;;;;18.41;81.05;100217.25;5070803;28;20029;-74
2022/08/03 00:52:04;;;;;;;6.75;1.58;;;;;;;18.42;81.48;100216.13;5043928;28;20057;-73
2022/08/03 00:54:31;;;;;;;13.48;1.67;;;;;;;18.44;80.75;100208.31;5056442;28;20442;-75
2022/08/03 00:56:56;;;;;;;5.18;1.50;;;;;;;18.44;80.66;100211.91;5076868;28;20025;-74
2022/08/03 00:59:22;;;;;;;4.78;1.25;;;;;;;18.48;81.07;100214.81;5074517;28;20405;-74
2022/08/03 01:01:47;;;;;;;7.05;1.48;;;;;;;18.46;81.00;100211.56;5051390;28;20032;-74
2022/08/03 01:04:13;;;;;;;6.18;1.33;;;;;;;18.44;80.74;100208.31;5046136;28;20088;-74
2022/08/03 01:07:14;;;;;;;11.35;1.83;;;;;;;18.42;81.10;100210.59;5047542;28;20167;-74
2022/08/03 01:10:04;;;;;;;8.70;1.48;;;;;;;18.38;80.67;100201.31;5069330;28;20028;-73
2022/08/03 01:12:47;;;;;;;7.60;1.63;;;;;;;18.35;81.36;100201.94;5073191;28;20109;-73
2022/08/03 01:15:20;;;;;;;8.55;1.80;;;;;;;18.30;81.00;100192.66;5054126;28;20036;-73
2022/08/03 01:17:54;;;;;;;7.80;1.40;;;;;;;18.27;81.07;100187.78;5072409;28;20103;-74
2022/08/03 01:20:23;;;;;;;9.45;1.70;;;;;;;18.26;81.16;100186.13;5077660;28;20115;-73
2022/08/03 01:23:07;;;;;;;6.05;1.40;;;;;;;18.23;81.52;100186.78;5073290;28;20028;-73
2022/08/03 01:26:02;;;;;;;4.00;0.98;;;;;;;18.22;81.62;100190.69;5074660;28;20032;-73
2022/08/03 01:28:36;;;;;;;7.65;1.20;;;;;;;18.18;82.43;100188.91;5052282;28;20033;-73
2022/08/03 01:31:06;;;;;;;6.45;1.50;;;;;;;18.18;82.13;100181.44;5047811;28;20024;-73
2022/08/03 01:33:40;;;;;;;4.38;1.00;;;;;;;18.19;82.51;100174.72;5047943;28;20161;-73
2022/08/03 01:36:14;;;;;;;5.82;0.95;;;;;;;18.18;82.42;100173.13;5054533;28;20013;-73
2022/08/03 01:39:10;;;;;;;7.50;1.10;;;;;;;18.18;82.60;100173.13;5068550;28;20050;-73
2022/08/03 01:42:01;;;;;;;5.07;1.63;;;;;;;18.13;82.74;100159.44;5051578;28;20048;-73
2022/08/03 01:44:30;;;;;;;7.65;1.02;;;;;;;18.13;83.33;100159.44;5053373;28;20028;-73
2022/08/03 01:47:00;;;;;;;4.40;0.95;;;;;;;18.07;83.22;100166.25;5065591;28;20020;-72
2022/08/03 01:49:29;;;;;;;5.50;1.17;;;;;;;18.01;83.75;100162.03;5048265;28;20024;-73
2022/08/03 01:51:56;;;;;;;3.38;0.88;;;;;;;17.93;84.38;100161.69;5068917;28;20029;-74
2022/08/03 01:54:23;;;;;;;4.25;0.73;;;;;;;17.91;84.87;100163.94;5070357;28;20029;-74
2022/08/03 01:56:51;;;;;;;4.20;1.00;;;;;;;17.95;84.86;100153.06;5049474;28;20040;-73
2022/08/03 01:59:19;;;;;;;6.30;1.23;;;;;;;17.96;84.77;100152.75;5048651;28;20043;-72
2022/08/03 02:01:46;;;;;;;3.17;0.75;;;;;;;17.98;85.58;100157.16;5051020;28;20390;-72
2022/08/03 02:04:15;;;;;;;3.88;0.82;;;;;;;17.96;85.49;100161.03;5062178;28;20036;-72
2022/08/03 02:06:44;;;;;;;7.72;0.90;;;;;;;18.03;85.28;100159.75;5072740;28;20115;-72
2022/08/03 02:09:11;;;;;;;11.38;1.27;;;;;;;18.04;85.31;100155.84;5048516;28;20039;-73
2022/08/03 02:11:37;;;;;;;4.50;0.88;;;;;;;18.08;85.54;100162.38;5068098;28;20124;-72
2022/08/03 02:14:05;;;;;;;4.35;1.08;;;;;;;18.06;85.37;100153.56;5048415;28;20059;-74
2022/08/03 02:16:33;;;;;;;4.15;0.80;;;;;;;18.08;85.70;100152.09;5073505;28;20048;-72
2022/08/03 02:19:02;;;;;;;2.72;0.90;;;;;;;18.08;85.51;100154.88;5078341;28;20070;-74
2022/08/03 02:21:30;;;;;;;6.20;1.40;;;;;;;18.10;85.21;100149.00;5060390;28;20140;-75
2022/08/03 02:23:56;;;;;;;2.95;0.85;;;;;;;18.10;85.32;100160.09;5079741;28;20032;-72
2022/08/03 02:26:24;;;;;;;2.97;1.00;;;;;;;18.14;85.33;100150.00;5043784;28;20040;-73
2022/08/03 02:28:54;;;;;;;10.25;1.17;;;;;;;18.16;85.14;100142.19;5078390;28;20048;-73
2022/08/03 02:31:24;;;;;;;4.78;1.52;;;;;;;18.17;85.13;100141.03;5077274;28;20028;-73
2022/08/03 02:33:53;;;;;;;6.70;1.10;;;;;;;18.18;85.46;100142.69;5060394;28;20028;-72
2022/08/03 02:36:21;;;;;;;7.97;1.00;;;;;;;18.17;85.24;100143.00;5059861;28;20439;-72
2022/08/03 02:38:50;;;;;;;5.10;0.98;;;;;;;18.18;85.30;100144.63;5078777;28;20025;-73
2022/08/03 02:41:20;;;;;;;6.82;1.00;;;;;;;18.19;85.63;100141.53;5076943;28;20027;-73
2022/08/03 02:43:50;;;;;;;6.25;1.30;;;;;;;18.22;85.32;100138.09;5056880;28;20056;-72
2022/08/03 02:46:19;;;;;;;2.85;0.90;;;;;;;18.27;85.41;100139.91;5053851;28;20491;-73
2022/08/03 02:48:47;;;;;;;3.60;1.10;;;;;;;18.29;85.30;100138.44;5059070;28;20034;-73
2022/08/03 02:51:15;;;;;;;2.05;0.93;;;;;;;18.31;85.14;100143.66;5051331;28;20029;-73
2022/08/03 02:53:44;;;;;;;5.15;1.10;;;;;;;18.36;84.95;100139.94;5057389;28;20135;-72
2022/08/03 02:56:10;;;;;;;6.65;0.82;;;;;;;18.33;85.02;100146.91;5059372;28;20621;-73
2022/08/03 02:58:38;;;;;;;4.18;1.10;;;;;;;18.30;85.36;100140.06;5063394;28;20020;-73
2022/08/03 03:01:04;;;;;;;3.75;0.85;;;;;;;18.34;85.59;100147.72;5055503;28;20036;-74
2022/08/03 03:03:31;;;;;;;8.90;1.20;;;;;;;18.37;85.11;100147.06;5049140;28;20119;-73
2022/08/03 03:05:56;;;;;;;5.60;1.20;;;;;;;18.37;84.96;100152.59;5039105;28;20024;-74
2022/08/03 03:08:23;;;;;;;4.43;1.05;;;;;;;18.36;85.10;100151.81;5043384;28;20167;-74
2022/08/03 03:10:49;;;;;;;7.75;1.02;;;;;;;18.37;85.38;100153.44;5076487;28;20033;-72
2022/08/03 03:13:16;;;;;;;7.25;1.45;;;;;;;18.39;84.91;100155.88;5050247;28;20345;-74
2022/08/03 03:15:44;;;;;;;3.63;1.17;;;;;;;18.40;84.91;100163.03;5070971;28;20040;-74
2022/08/03 03:18:10;;;;;;;6.88;1.17;;;;;;;18.38;85.06;100157.00;5075058;28;20040;-73
2022/08/03 03:20:37;;;;;;;8.65;1.40;;;;;;;18.40;85.25;100163.03;5061693;28;20159;-73
2022/08/03 03:23:04;;;;;;;6.28;1.08;;;;;;;18.40;85.00;100154.72;5055768;28;20111;-73
2022/08/03 03:25:31;;;;;;;4.40;1.30;;;;;;;18.46;84.83;100157.00;5039125;28;20032;-73
2022/08/03 03:28:00;;;;;;;4.82;1.00;;;;;;;18.49;85.19;100159.13;5061421;28;20100;-72
2022/08/03 03:30:26;;;;;;;11.52;1.25;;;;;;;18.50;85.12;100159.97;5072356;28;20060;-73
2022/08/03 03:32:52;;;;;;;4.05;1.05;;;;;;;18.51;85.11;100160.75;5030526;28;20032;-73
2022/08/03 03:35:17;;;;;;;9.90;1.40;;;;;;;18.50;85.08;100165.50;5053743;28;20032;-75
2022/08/03 03:37:43;;;;;;;8.32;1.30;;;;;;;18.47;85.14;100157.81;5055510;28;20134;-73
2022/08/03 03:40:09;;;;;;;10.90;1.30;;;;;;;18.41;85.63;100150.81;5053238;28;20031;-73
2022/08/03 03:42:37;;;;;;;5.20;1.10;;;;;;;18.39;85.88;100159.44;5060420;28;20044;-74
2022/08/03 03:45:06;;;;;;;6.68;1.83;;;;;;;18.36;86.57;100156.53;5058094;28;20131;-74
2022/08/03 03:47:33;;;;;;;10.65;1.50;;;;;;;18.33;86.56;100148.88;5051009;28;20444;-74
2022/08/03 03:50:00;;;;;;;3.10;0.95;;;;;;;18.32;87.16;100148.06;5070600;28;20032;-73
2022/08/03 03:52:25;;;;;;;4.38;1.00;;;;;;;18.28;86.99;100155.38;5067720;28;20133;-72
2022/08/03 03:54:51;;;;;;;10.25;1.58;;;;;;;18.22;87.44;100153.91;5054722;28;20044;-72
2022/08/03 03:57:16;;;;;;;8.20;1.45;;;;;;;18.19;87.95;100160.91;5024590;28;20036;-74
2022/08/03 03:59:42;;;;;;;5.07;1.10;;;;;;;18.18;87.74;100156.53;5053086;28;20508;-75
2022/08/03 04:02:09;;;;;;;3.25;1.30;;;;;;;18.20;87.79;100159.75;5071397;28;20027;-74
2022/08/03 04:13:01;;;;;;;7.90;1.00;;;;;;;18.26;87.54;100158.47;5076873;28;20077;-75
2022/08/03 04:15:28;;;;;;;10.82;1.40;;;;;;;18.28;88.13;100161.75;5056886;28;20115;-75
2022/08/03 04:17:57;;;;;;;4.63;1.00;;;;;;;18.28;88.46;100156.19;5059546;28;20032;-73
2022/08/03 04:20:28;;;;;;;6.22;1.10;;;;;;;18.28;88.07;100158.97;5077516;28;20105;-74
2022/08/03 04:22:58;;;;;;;9.85;1.30;;;;;;;18.29;88.70;100157.00;5081074;28;20024;-73
2022/08/03 04:25:29;;;;;;;7.68;1.20;;;;;;;18.28;88.32;100156.19;5060210;28;20450;-73
2022/08/03 04:27:58;;;;;;;4.68;1.20;;;;;;;18.31;88.29;100161.09;5078030;28;20055;-73
2022/08/03 04:30:26;;;;;;;7.90;1.42;;;;;;;18.28;88.05;100156.19;5038062;28;20044;-74
2022/08/03 04:32:53;;;;;;;6.28;1.65;;;;;;;18.30;88.64;100156.69;5063824;28;20062;-73
2022/08/03 04:35:18;;;;;;;8.20;1.13;;;;;;;18.29;88.31;100157.81;5066221;28;20025;-74
2022/08/03 04:37:48;;;;;;;11.23;0.95;;;;;;;18.31;88.56;100155.56;5026873;28;20110;-73
2022/08/03 04:40:19;;;;;;;5.25;1.33;;;;;;;18.34;88.66;100158.78;5056126;28;20037;-74
2022/08/03 04:42:45;;;;;;;6.82;1.30;;;;;;;18.29;89.12;100163.34;5075106;28;20549;-73
2022/08/03 04:45:11;;;;;;;4.60;1.00;;;;;;;18.24;89.55;100151.66;5020399;28;20391;-73
2022/08/03 04:47:38;;;;;;;2.42;0.65;;;;;;;18.22;89.83;100145.59;5073243;28;20040;-73
2022/08/03 04:50:06;;;;;;;4.18;0.63;;;;;;;18.24;89.93;100148.88;5068534;28;20070;-73
2022/08/03 04:52:33;;;;;;;2.22;0.68;;;;;;;18.26;90.13;100157.66;5028925;28;20049;-73
2022/08/03 04:54:59;;;;;;;1.48;0.65;;;;;;;18.23;89.75;100147.25;5056052;28;20061;-73
2022/08/03 04:57:24;;;;;;;1.45;0.52;;;;;;;18.25;89.79;100140.25;5050078;28;20033;-74
2022/08/03 04:59:55;;;;;;;2.13;0.60;;;;;;;18.23;90.21;100136.97;5036697;28;20363;-74
2022/08/03 05:02:20;;;;;;;10.90;0.90;;;;;;;18.30;90.42;100153.09;5041673;28;20070;-74
2022/08/03 05:04:46;;;;;;;1.02;0.47;;;;;;;18.31;89.78;100150.00;5072019;28;20032;-73
2022/08/03 05:07:12;;;;;;;4.07;1.00;;;;;;;18.28;89.96;100149.84;5070323;28;20021;-73
2022/08/03 05:09:38;;;;;;;2.70;0.75;;;;;;;18.26;90.09;100152.94;5061904;28;20040;-74
2022/08/03 05:12:05;;;;;;;1.35;0.70;;;;;;;18.24;90.35;100144.16;5073814;28;20036;-75
2022/08/03 05:14:31;;;;;;;1.23;0.50;;;;;;;18.28;90.66;100156.19;5055416;28;20037;-73
2022/08/03 05:16:56;;;;;;;0.80;0.40;;;;;;;18.28;90.65;100161.75;5074430;28;20060;-75
2022/08/03 05:19:22;;;;;;;6.05;0.70;;;;;;;18.28;90.56;100160.91;5074157;28;20020;-74
2022/08/03 05:21:47;;;;;;;3.40;1.45;;;;;;;18.28;90.67;100158.97;5051086;28;20029;-74
2022/08/03 05:24:13;;;;;;;1.08;0.47;;;;;;;18.36;90.97;100153.75;5040975;28;20034;-72
2022/08/03 05:26:38;;;;;;;2.53;0.68;;;;;;;18.41;90.79;100159.97;5051292;28;20025;-75
2022/08/03 05:29:04;;;;;;;1.95;0.40;;;;;;;18.43;90.58;100167.94;5051070;28;20035;-73
2022/08/03 05:31:29;;;;;;;0.68;0.40;;;;;;;18.44;90.38;100161.25;5042910;28;20562;-73
2022/08/03 05:33:56;;;;;;;1.23;0.40;;;;;;;18.41;90.68;100170.19;5032732;28;20041;-74
2022/08/03 05:36:21;;;;;;;1.75;0.50;;;;;;;18.38;90.68;100159.78;5037636;28;20096;-74
2022/08/03 05:38:47;;;;;;;3.35;0.60;;;;;;;18.44;90.47;100175.91;5066124;28;20085;-74
2022/08/03 05:41:12;;;;;;;4.65;0.70;;;;;;;18.48;90.70;100176.06;5045545;28;20025;-75
2022/08/03 05:43:38;;;;;;;1.48;0.45;;;;;;;18.51;90.52;100175.41;5054081;28;20036;-75
2022/08/03 05:46:03;;;;;;;4.30;0.43;;;;;;;18.53;90.12;100178.69;5039485;28;20110;-74
2022/08/03 05:48:29;;;;;;;2.13;0.50;;;;;;;18.51;89.89;100169.06;5052760;28;20036;-74
2022/08/03 05:50:57;;;;;;;2.25;0.77;;;;;;;18.58;90.01;100172.97;5034947;28;20666;-72
2022/08/03 05:53:23;;;;;;;1.13;0.40;;;;;;;18.64;89.70;100177.19;5018170;28;20052;-75
2022/08/03 05:55:48;;;;;;;1.42;0.40;;;;;;;18.69;89.64;100176.25;5073010;28;20123;-74
2022/08/03 05:58:14;;;;;;;0.75;0.30;;;;;;;18.79;89.16;100175.06;5056213;28;20032;-75
2022/08/03 06:00:43;;;;;;;1.75;0.50;;;;;;;18.88;88.26;100167.59;5034821;28;20527;-76
2022/08/03 06:03:11;;;;;;;2.70;0.45;;;;;;;19.05;88.18;100179.78;5022395;28;20109;-76
2022/08/03 06:05:37;;;;;;;2.88;0.30;;;;;;;19.14;86.84;100180.59;5031611;28;20028;-77
2022/08/03 06:08:03;;;;;;;1.45;0.38;;;;;;;19.17;86.77;100186.28;5033400;28;20120;-74
2022/08/03 06:10:32;;;;;;;0.32;0.30;;;;;;;19.12;86.86;100185.66;5031124;28;20056;-74
2022/08/03 06:12:57;;;;;;;0.43;0.35;;;;;;;19.08;87.00;100193.00;5045813;28;20021;-74
2022/08/03 06:15:23;;;;;;;0.65;0.20;;;;;;;19.07;86.86;100178.34;5049171;28;20107;-75
2022/08/03 06:17:50;;;;;;;2.88;0.43;;;;;;;19.04;86.78;100180.94;5054523;28;20126;-74
2022/08/03 06:20:18;;;;;;;1.55;0.40;;;;;;;18.98;87.28;100183.88;5030311;28;20391;-73
2022/08/03 06:22:44;;;;;;;0.60;0.30;;;;;;;18.97;87.30;100193.34;5055898;28;20059;-72
2022/08/03 06:25:09;;;;;;;1.00;0.40;;;;;;;18.94;87.45;100177.38;5038929;28;20024;-73
2022/08/03 06:27:38;;;;;;;0.88;0.30;;;;;;;18.95;87.82;100192.88;5051717;28;20035;-74
2022/08/03 06:30:09;;;;;;;2.08;0.50;;;;;;;18.96;87.84;100191.69;5041063;28;20068;-74
2022/08/03 06:32:37;;;;;;;1.85;0.47;;;;;;;19.04;87.62;100203.09;5069032;28;20108;-75
2022/08/03 06:35:04;;;;;;;1.33;0.95;;;;;;;19.14;87.07;100197.22;5051742;28;20051;-73
2022/08/03 06:41:25;;;;;;;0.85;0.38;;;;;;;19.60;85.22;100175.38;4974272;28;20098;-77
2022/08/03 06:43:50;;;;;;;1.60;0.32;;;;;;;20.09;82.43;100189.66;4976977;28;20035;-78
2022/08/03 06:46:15;;;;;;;0.70;0.20;;;;;;;20.27;80.82;100182.03;5041854;28;20082;-75
2022/08/03 06:48:41;;;;;;;0.75;0.25;;;;;;;20.29;81.06;100188.06;5051039;28;20056;-74
2022/08/03 06:51:06;;;;;;;1.30;0.28;;;;;;;20.27;80.61;100192.31;5054464;28;20030;-75
2022/08/03 06:53:32;;;;;;;0.60;0.20;;;;;;;20.14;80.60;100210.88;5032771;28;20258;-75
2022/08/03 06:55:57;;;;;;;0.20;0.10;;;;;;;20.02;81.57;100192.97;5069484;28;20083;-74
2022/08/03 06:58:23;;;;;;;2.10;0.30;;;;;;;19.94;81.58;100191.06;5072173;28;20028;-74
2022/08/03 07:00:48;;;;;;;0.60;0.30;;;;;;;19.92;82.11;100185.03;5069937;28;20064;-74
2022/08/03 07:03:14;;;;;;;0.10;0.10;;;;;;;19.99;82.01;100184.50;5051770;28;20039;-73
2022/08/03 07:05:42;;;;;;;0.95;0.30;;;;;;;20.12;81.22;100190.94;5072741;28;20040;-76
2022/08/03 07:08:07;;;;;;;1.20;0.20;;;;;;;20.29;80.95;100188.06;5036276;28;20049;-73
2022/08/03 07:10:33;;;;;;;0.82;0.20;;;;;;;20.44;79.96;100191.38;5053433;28;20129;-72
2022/08/03 07:12:58;;;;;;;2.92;0.20;;;;;;;20.56;79.82;100183.13;5025335;28;20471;-74
2022/08/03 07:15:24;;;;;;;0.55;0.30;;;;;;;20.40;80.05;100191.28;5050949;28;20044;-75
2022/08/03 07:17:49;;;;;;;2.83;0.40;;;;;;;20.07;81.77;100205.03;5045912;28;20067;-75
2022/08/03 07:20:17;;;;;;;0.52;0.22;;;;;;;19.87;82.87;100201.88;5054951;28;20509;-74
2022/08/03 07:22:43;;;;;;;0.30;0.13;;;;;;;19.86;82.86;100205.81;5076947;28;20436;-73
2022/08/03 07:25:09;;;;;;;0.98;0.10;;;;;;;20.00;82.50;100206.34;5058620;28;20021;-75
2022/08/03 07:27:35;;;;;;;0.50;0.20;;;;;;;20.14;81.76;100202.56;5056892;28;20046;-74
2022/08/03 07:30:00;;;;;;;0.32;0.28;;;;;;;20.39;80.54;100212.66;5042815;28;20036;-75
2022/08/03 07:32:27;;;;;;;0.22;0.20;;;;;;;20.57;79.35;100193.06;5049618;28;20073;-73
2022/08/03 07:34:53;;;;;;;0.28;0.20;;;;;;;20.66;78.70;100204.97;5077267;28;20032;-74
2022/08/03 07:37:18;;;;;;;0.20;0.20;;;;;;;20.69;78.97;100195.97;5062719;28;20027;-74
2022/08/03 07:39:44;;;;;;;0.10;0.10;;;;;;;20.78;78.43;100211.72;5058494;28;20511;-74
2022/08/03 07:42:10;;;;;;;0.98;0.25;;;;;;;20.62;78.57;100204.00;5077228;28;20031;-75
2022/08/03 07:44:35;;;;;;;0.30;0.30;;;;;;;20.58;78.87;100212.19;5046582;28;20326;-74
2022/08/03 07:47:01;;;;;;;0.57;0.20;;;;;;;20.28;79.79;100205.06;5074075;28;20029;-74
2022/08/03 07:49:26;;;;;;;0.52;0.47;;;;;;;20.26;80.39;100213.72;5062791;28;20483;-75
2022/08/03 07:54:36;;;;;;;0.50;0.20;;;;;;;20.75;78.54;100202.94;5057058;28;20058;-74
2022/08/03 07:57:01;;;;;;;1.85;0.38;;;;;;;20.75;78.64;100214.03;5077280;28;20060;-76
2022/08/03 07:59:27;;;;;;;2.00;0.30;;;;;;;20.63;78.73;100222.28;5076973;28;20040;-74
2022/08/03 08:01:52;;;;;;;0.50;0.20;;;;;;;20.59;78.82;100210.25;5077077;28;20046;-74
2022/08/03 08:04:18;;;;;;;0.85;0.20;;;;;;;20.52;79.34;100209.97;5041577;28;20154;-75
2022/08/03 08:06:43;;;;;;;1.77;0.28;;;;;;;20.57;79.30;100216.13;5043950;28;20629;-74
2022/08/03 08:09:10;;;;;;;2.75;0.35;;;;;;;20.58;79.51;100214.16;5057007;28;20100;-74
2022/08/03 08:11:36;;;;;;;1.08;0.35;;;;;;;20.67;79.37;100201.03;5072565;28;20043;-73
2022/08/03 08:14:02;;;;;;;2.70;0.50;;;;;;;20.69;79.00;100204.28;5067495;28;20483;-73
2022/08/03 08:16:28;;;;;;;0.90;0.30;;;;;;;20.53;79.60;100214.34;5053577;28;20026;-73
2022/08/03 08:18:53;;;;;;;1.38;0.38;;;;;;;20.42;80.26;100235.34;5039247;28;20039;-74
2022/08/03 08:21:19;;;;;;;0.57;0.30;;;;;;;20.39;80.98;100234.06;5052028;28;20021;-73
2022/08/03 08:23:44;;;;;;;0.25;0.20;;;;;;;20.39;81.60;100209.88;5035887;28;20028;-75
2022/08/03 08:26:09;;;;;;;1.35;0.30;;;;;;;20.60;80.58;100222.16;5052629;28;20037;-71
2022/08/03 08:28:35;;;;;;;1.50;0.40;;;;;;;20.55;80.68;100223.16;5041414;28;20040;-72
2022/08/03 08:31:01;;;;;;;1.73;0.50;;;;;;;20.45;81.07;100220.78;5052170;28;20557;-73
2022/08/03 08:33:26;;;;;;;3.20;0.30;;;;;;;20.66;80.22;100210.53;5054714;28;20670;-73
2022/08/03 08:35:52;;;;;;;1.25;0.40;;;;;;;21.08;78.88;100221.59;5054730;28;20098;-73
2022/08/03 08:38:18;;;;;;;1.00;0.30;;;;;;;21.10;77.90;100222.06;5038708;28;20044;-73
2022/08/03 08:40:43;;;;;;;1.17;0.40;;;;;;;20.99;77.56;100217.28;5053493;28;20028;-74
2022/08/03 08:43:09;;;;;;;2.72;0.30;;;;;;;20.92;78.07;100228.94;5052579;28;20044;-75
2022/08/03 08:45:35;;;;;;;0.95;0.30;;;;;;;20.78;78.37;100228.41;5036027;28;20044;-73
2022/08/03 08:48:02;;;;;;;0.82;0.40;;;;;;;20.63;79.14;100238.94;5039022;28;20029;-73
2022/08/03 08:50:28;;;;;;;2.13;0.38;;;;;;;20.58;79.48;100236.38;5053719;28;20040;-73
2022/08/03 08:52:57;;;;;;;1.05;0.40;;;;;;;20.56;79.67;100228.38;5069933;28;20068;-72
2022/08/03 08:55:22;;;;;;;4.60;0.40;;;;;;;20.45;80.25;100243.81;5072253;28;20040;-72
2022/08/03 08:57:54;;;;;;;1.13;0.52;;;;;;;20.39;81.23;100240.41;5063450;28;20502;-73
2022/08/03 09:00:20;;;;;;;4.03;1.20;;;;;;;20.40;81.32;100230.94;5069074;28;20036;-73
2022/08/03 09:02:46;;;;;;;6.22;0.75;;;;;;;20.44;81.76;100235.81;5071561;28;20038;-73
2022/08/03 09:05:13;;;;;;;1.48;0.80;;;;;;;20.51;81.58;100236.09;5073505;28;20056;-74
2022/08/03 09:07:41;;;;;;;1.35;0.50;;;;;;;20.25;83.86;100228.75;5051480;28;20013;-73
2022/08/03 09:10:08;;;;;;;2.20;0.73;;;;;;;19.87;85.96;100243.47;5046374;28;20017;-71
2022/08/03 09:12:49;;;;;;;2.97;0.70;;;;;;;19.63;87.81;100224.63;5056468;28;20078;-73
2022/08/03 09:15:18;;;;;;;3.55;1.00;;;;;;;19.54;87.99;100221.91;5068776;28;20037;-74
2022/08/03 09:17:44;;;;;;;3.47;0.75;;;;;;;19.42;89.38;100225.38;5050811;28;20017;-73
2022/08/03 09:20:10;;;;;;;2.85;1.00;;;;;;;19.38;90.14;100229.09;5044098;28;20105;-73
2022/08/03 09:22:50;;;;;;;4.22;1.15;;;;;;;19.40;89.69;100224.06;5070432;28;20078;-74
2022/08/03 09:25:15;;;;;;;3.83;1.10;;;;;;;19.46;89.28;100218.00;5067938;28;20021;-74
2022/08/03 09:27:45;;;;;;;3.20;1.10;;;;;;;19.83;87.74;100225.88;5053794;28;20044;-73
2022/08/03 09:30:15;;;;;;;4.90;1.17;;;;;;;20.23;85.24;100223.53;5062433;28;20024;-74
2022/08/03 09:32:43;;;;;;;3.25;1.08;;;;;;;20.32;83.29;100231.00;5069093;28;20032;-73
2022/08/03 09:35:10;;;;;;;2.78;1.15;;;;;;;20.37;82.74;100226.06;5046316;28;20471;-73
2022/08/03 09:37:36;;;;;;;1.52;0.82;;;;;;;20.37;82.45;100220.50;5070046;28;20351;-76
2022/08/03 09:40:02;;;;;;;10.27;1.13;;;;;;;20.50;82.11;100218.63;5051183;28;20082;-72
2022/08/03 09:42:27;;;;;;;6.38;0.98;;;;;;;20.74;81.05;100217.97;5053815;28;20041;-74
2022/08/03 09:44:53;;;;;;;4.18;1.30;;;;;;;20.89;80.07;100207.38;5070203;28;20024;-73
2022/08/03 09:47:37;;;;;;;4.13;1.20;;;;;;;21.26;78.58;100199.16;5030563;28;20032;-72
2022/08/03 09:50:07;;;;;;;1.83;0.75;;;;;;;21.43;76.39;100210.06;5050885;28;20029;-73
2022/08/03 09:52:35;;;;;;;7.18;0.95;;;;;;;21.34;77.24;100223.28;5053073;28;20042;-73
2022/08/03 09:55:10;;;;;;;3.42;1.27;;;;;;;21.12;77.17;100226.47;5074266;28;20075;-73
2022/08/03 09:57:36;;;;;;;3.20;1.10;;;;;;;20.93;77.54;100241.69;5047260;28;20016;-73
2022/08/03 10:00:13;;;;;;;5.25;1.30;;;;;;;20.63;79.21;100216.72;5073087;28;21528;-73
2022/08/03 10:02:43;;;;;;;1.83;0.77;;;;;;;20.53;79.58;100242.13;5071574;28;20025;-74
2022/08/03 10:05:10;;;;;;;2.95;0.90;;;;;;;20.30;80.61;100242.44;5056980;28;20406;-76
2022/08/03 10:07:45;;;;;;;2.10;0.90;;;;;;;20.30;81.41;100228.56;5055445;28;20028;-74
2022/08/03 10:10:10;;;;;;;4.22;1.23;;;;;;;20.60;80.11;100239.63;5073951;28;20466;-74
2022/08/03 10:12:38;;;;;;;4.78;2.95;;;;;;;21.01;78.94;100224.13;5054964;28;20047;-74
2022/08/03 10:15:04;;;;;;;2.97;1.02;;;;;;;21.46;76.84;100222.50;5070880;28;20489;-73
2022/08/03 10:17:29;;;;;;;10.43;1.10;;;;;;;21.81;75.21;100229.66;5075760;28;20783;-73
2022/08/03 10:19:56;;;;;;;2.13;0.90;;;;;;;22.06;73.79;100222.91;5066521;28;20033;-74
2022/08/03 10:22:23;;;;;;;2.50;1.00;;;;;;;22.31;72.83;100220.09;5055805;28;20032;-74
2022/08/03 10:24:58;;;;;;;4.00;0.77;;;;;;;22.37;72.88;100224.31;5054144;28;20025;-74
2022/08/03 10:27:25;;;;;;;2.28;1.13;;;;;;;22.40;72.91;100228.34;5071702;28;20028;-74
2022/08/03 10:29:59;;;;;;;4.45;1.20;;;;;;;22.64;71.82;100221.91;5049037;28;20082;-74
2022/08/03 10:32:33;;;;;;;2.50;0.85;;;;;;;22.66;71.35;100230.72;5052077;28;20040;-73
2022/08/03 10:35:03;;;;;;;3.72;1.13;;;;;;;22.40;71.71;100234.75;5057081;28;20024;-73
2022/08/03 10:37:33;;;;;;;3.50;1.23;;;;;;;21.93;73.12;100224.06;5077903;28;20016;-74
2022/08/03 10:39:59;;;;;;;6.22;1.17;;;;;;;21.64;74.60;100231.50;5072035;28;20063;-74
2022/08/03 10:42:27;;;;;;;2.30;1.00;;;;;;;21.54;75.26;100227.19;5057418;28;20037;-73
2022/08/03 10:45:01;;;;;;;5.15;0.90;;;;;;;21.52;75.50;100234.25;5058975;28;20063;-73
2022/08/03 10:47:27;;;;;;;5.18;1.20;;;;;;;21.66;74.39;100225.59;5071251;28;20116;-73
2022/08/03 10:49:52;;;;;;;6.18;1.35;;;;;;;21.61;74.33;100226.59;5046815;28;20037;-72
2022/08/03 10:52:18;;;;;;;2.22;0.93;;;;;;;21.53;75.57;100224.75;5053428;28;20028;-73
2022/08/03 10:57:54;;;;;;;3.65;1.27;;;;;;;21.49;75.46;100230.16;5073202;28;20040;-74
2022/08/03 11:00:23;;;;;;;4.22;1.20;;;;;;;21.37;76.33;100235.69;5057018;28;20041;-74
2022/08/03 11:03:09;;;;;;;3.75;1.27;;;;;;;21.37;77.08;100222.59;5054723;28;20036;-73
2022/08/03 11:05:39;;;;;;;6.03;1.48;;;;;;;21.36;76.71;100237.66;5057957;28;20367;-74
2022/08/03 11:08:31;;;;;;;2.30;1.23;;;;;;;21.35;76.33;100236.03;5078323;28;20017;-74
2022/08/03 11:11:27;;;;;;;5.32;1.27;;;;;;;21.44;76.37;100233.16;5074988;28;20028;-78
2022/08/03 11:14:07;;;;;;;6.00;1.55;;;;;;;21.52;75.84;100234.25;5070250;28;20030;-78
2022/08/03 11:16:34;;;;;;;5.35;1.30;;;;;;;21.64;75.92;100234.28;5057300;28;20024;-77
2022/08/03 11:19:02;;;;;;;8.02;1.98;;;;;;;21.73;75.54;100229.41;5069005;28;20017;-76
2022/08/03 11:21:50;;;;;;;4.68;1.45;;;;;;;21.78;74.56;100237.50;5071464;28;20024;-75
2022/08/03 11:24:41;;;;;;;6.35;1.45;;;;;;;21.82;74.24;100231.28;5058877;28;20020;-75
2022/08/03 11:27:48;;;;;;;8.18;2.30;;;;;;;21.60;75.29;100230.56;5078406;28;21128;-73
2022/08/03 11:30:19;;;;;;;15.98;2.58;;;;;;;21.28;76.91;100235.78;5067704;28;20119;-76
2022/08/03 11:32:49;;;;;;;6.85;2.20;;;;;;;21.23;77.44;100234.03;5061501;28;20492;-76
2022/08/03 11:35:19;;;;;;;9.35;1.98;;;;;;;21.61;76.24;100234.94;5056859;28;20024;-75
2022/08/03 11:37:57;;;;;;;7.28;2.10;;;;;;;22.01;74.71;100231.50;5072987;28;20025;-77
2022/08/03 11:40:42;;;;;;;7.47;1.95;;;;;;;22.36;72.94;100238.59;5059091;28;20073;-75
2022/08/03 11:43:21;;;;;;;5.90;1.70;;;;;;;22.72;71.99;100234.91;5055450;28;20132;-75
2022/08/03 11:46:04;;;;;;;2.90;1.10;;;;;;;23.02;69.74;100238.16;5061342;28;20074;-75
2022/08/03 11:48:35;;;;;;;4.78;1.80;;;;;;;23.15;68.91;100241.72;5057381;28;20029;-73